sensor_id;sensor_type;location;lat;lon;timestamp;P1;durP1;ratioP1;P2;durP2;ratioP2
35245;SDS011;21379;50.962;6.960;2023-03-01T00:01:25;6.00;;;3.03;;
35245;SDS011;21379;50.962;6.960;2023-03-01T00:03:54;8.32;;;3.90;;
35245;SDS011;21379;50.962;6.960;2023-03-01T00:06:21;9.82;;;3.35;;
35245;SDS011;21379;50.962;6.960;2023-03-01T00:08:48;9.65;;;3.85;;
35245;SDS011;21379;50.962;6.960;2023-03-01T00:11:17;8.43;;;3.35;;
35245;SDS011;21379;50.962;6.960;2023-03-01T00:13:48;12.80;;;4.18;;
35245;SDS011;21379;50.962;6.960;2023-03-01T00:16:17;4.45;;;3.28;;
35245;SDS011;21379;50.962;6.960;2023-03-01T00:18:45;6.78;;;3.20;;
35245;SDS011;21379;50.962;6.960;2023-03-01T00:21:12;14.15;;;4.13;;
35245;SDS011;21379;50.962;6.960;2023-03-01T00:23:39;5.47;;;3.05;;
35245;SDS011;21379;50.962;6.960;2023-03-01T00:26:06;9.70;;;4.00;;
35245;SDS011;21379;50.962;6.960;2023-03-01T00:28:34;8.43;;;3.42;;
35245;SDS011;21379;50.962;6.960;2023-03-01T00:31:06;6.60;;;2.92;;
35245;SDS011;21379;50.962;6.960;2023-03-01T00:33:34;6.53;;;2.83;;
35245;SDS011;21379;50.962;6.960;2023-03-01T00:36:02;5.25;;;2.78;;
35245;SDS011;21379;50.962;6.960;2023-03-01T00:38:29;8.55;;;3.03;;
35245;SDS011;21379;50.962;6.960;2023-03-01T00:41:02;7.68;;;2.22;;
35245;SDS011;21379;50.962;6.960;2023-03-01T00:43:29;8.32;;;3.13;;
35245;SDS011;21379;50.962;6.960;2023-03-01T00:46:01;7.30;;;3.72;;
35245;SDS011;21379;50.962;6.960;2023-03-01T00:48:30;6.10;;;3.78;;
35245;SDS011;21379;50.962;6.960;2023-03-01T00:50:56;4.82;;;3.25;;
35245;SDS011;21379;50.962;6.960;2023-03-01T00:53:29;6.57;;;2.80;;
35245;SDS011;21379;50.962;6.960;2023-03-01T00:55:57;5.70;;;2.25;;
35245;SDS011;21379;50.962;6.960;2023-03-01T00:58:24;7.82;;;2.40;;
35245;SDS011;21379;50.962;6.960;2023-03-01T01:00:51;3.33;;;2.78;;
35245;SDS011;21379;50.962;6.960;2023-03-01T01:03:18;7.75;;;3.83;;
35245;SDS011;21379;50.962;6.960;2023-03-01T01:05:46;7.50;;;3.05;;
35245;SDS011;21379;50.962;6.960;2023-03-01T01:08:13;7.05;;;3.33;;
35245;SDS011;21379;50.962;6.960;2023-03-01T01:10:40;6.18;;;2.85;;
35245;SDS011;21379;50.962;6.960;2023-03-01T01:13:10;6.70;;;3.38;;
35245;SDS011;21379;50.962;6.960;2023-03-01T01:15:37;5.05;;;3.08;;
35245;SDS011;21379;50.962;6.960;2023-03-01T01:18:03;4.40;;;2.85;;
35245;SDS011;21379;50.962;6.960;2023-03-01T01:20:30;7.38;;;3.47;;
35245;SDS011;21379;50.962;6.960;2023-03-01T01:22:58;5.50;;;3.25;;
35245;SDS011;21379;50.962;6.960;2023-03-01T01:25:25;7.90;;;2.95;;
35245;SDS011;21379;50.962;6.960;2023-03-01T01:27:52;7.72;;;3.13;;
35245;SDS011;21379;50.962;6.960;2023-03-01T01:30:19;5.75;;;3.10;;
35245;SDS011;21379;50.962;6.960;2023-03-01T01:32:46;7.57;;;4.03;;
35245;SDS011;21379;50.962;6.960;2023-03-01T01:35:12;6.47;;;3.03;;
35245;SDS011;21379;50.962;6.960;2023-03-01T01:37:39;18.33;;;4.20;;
35245;SDS011;21379;50.962;6.960;2023-03-01T01:40:08;6.80;;;3.25;;
35245;SDS011;21379;50.962;6.960;2023-03-01T01:42:36;3.63;;;2.97;;
35245;SDS011;21379;50.962;6.960;2023-03-01T01:47:58;4.88;;;3.17;;
35245;SDS011;21379;50.962;6.960;2023-03-01T01:50:28;6.60;;;4.18;;
35245;SDS011;21379;50.962;6.960;2023-03-01T01:53:03;6.88;;;2.72;;
35245;SDS011;21379;50.962;6.960;2023-03-01T01:55:35;5.25;;;3.33;;
35245;SDS011;21379;50.962;6.960;2023-03-01T01:58:05;7.85;;;4.13;;
35245;SDS011;21379;50.962;6.960;2023-03-01T02:00:35;12.80;;;3.95;;
35245;SDS011;21379;50.962;6.960;2023-03-01T02:03:05;13.00;;;3.97;;
35245;SDS011;21379;50.962;6.960;2023-03-01T02:05:36;12.93;;;3.85;;
35245;SDS011;21379;50.962;6.960;2023-03-01T02:08:08;7.75;;;2.60;;
35245;SDS011;21379;50.962;6.960;2023-03-01T02:10:39;9.52;;;4.97;;
35245;SDS011;21379;50.962;6.960;2023-03-01T02:13:07;9.13;;;3.95;;
35245;SDS011;21379;50.962;6.960;2023-03-01T02:15:35;8.20;;;3.78;;
35245;SDS011;21379;50.962;6.960;2023-03-01T02:18:04;12.20;;;4.13;;
35245;SDS011;21379;50.962;6.960;2023-03-01T02:20:38;7.97;;;3.47;;
35245;SDS011;21379;50.962;6.960;2023-03-01T02:23:11;8.13;;;3.60;;
35245;SDS011;21379;50.962;6.960;2023-03-01T02:25:41;6.90;;;3.63;;
35245;SDS011;21379;50.962;6.960;2023-03-01T02:28:21;9.93;;;4.05;;
35245;SDS011;21379;50.962;6.960;2023-03-01T02:30:50;3.72;;;2.90;;
35245;SDS011;21379;50.962;6.960;2023-03-01T02:33:35;13.52;;;3.15;;
35245;SDS011;21379;50.962;6.960;2023-03-01T02:36:04;7.15;;;3.58;;
35245;SDS011;21379;50.962;6.960;2023-03-01T02:38:34;7.10;;;3.03;;
35245;SDS011;21379;50.962;6.960;2023-03-01T02:41:01;7.10;;;3.28;;
35245;SDS011;21379;50.962;6.960;2023-03-01T02:43:31;9.77;;;3.55;;
35245;SDS011;21379;50.962;6.960;2023-03-01T02:46:02;7.35;;;4.13;;
35245;SDS011;21379;50.962;6.960;2023-03-01T02:48:38;7.55;;;3.95;;
35245;SDS011;21379;50.962;6.960;2023-03-01T02:51:09;4.03;;;3.15;;
35245;SDS011;21379;50.962;6.960;2023-03-01T02:53:58;5.68;;;3.05;;
35245;SDS011;21379;50.962;6.960;2023-03-01T02:56:37;6.70;;;3.88;;
35245;SDS011;21379;50.962;6.960;2023-03-01T02:59:05;5.72;;;3.25;;
35245;SDS011;21379;50.962;6.960;2023-03-01T03:01:33;8.13;;;2.50;;
35245;SDS011;21379;50.962;6.960;2023-03-01T03:04:03;7.82;;;3.25;;
35245;SDS011;21379;50.962;6.960;2023-03-01T03:06:31;4.63;;;2.72;;
35245;SDS011;21379;50.962;6.960;2023-03-01T03:08:58;6.15;;;3.60;;
35245;SDS011;21379;50.962;6.960;2023-03-01T03:11:25;8.15;;;4.18;;
35245;SDS011;21379;50.962;6.960;2023-03-01T03:13:52;4.32;;;2.75;;
35245;SDS011;21379;50.962;6.960;2023-03-01T03:16:20;5.53;;;2.97;;
35245;SDS011;21379;50.962;6.960;2023-03-01T03:18:47;10.85;;;3.15;;
35245;SDS011;21379;50.962;6.960;2023-03-01T03:21:14;7.53;;;3.60;;
35245;SDS011;21379;50.962;6.960;2023-03-01T03:23:42;6.82;;;3.80;;
35245;SDS011;21379;50.962;6.960;2023-03-01T03:26:09;6.75;;;3.47;;
35245;SDS011;21379;50.962;6.960;2023-03-01T03:28:38;7.25;;;4.03;;
35245;SDS011;21379;50.962;6.960;2023-03-01T03:31:05;3.03;;;2.13;;
35245;SDS011;21379;50.962;6.960;2023-03-01T03:33:34;9.43;;;4.05;;
35245;SDS011;21379;50.962;6.960;2023-03-01T03:36:01;7.60;;;3.65;;
35245;SDS011;21379;50.962;6.960;2023-03-01T03:38:28;7.05;;;4.28;;
35245;SDS011;21379;50.962;6.960;2023-03-01T03:40:59;9.23;;;3.88;;
35245;SDS011;21379;50.962;6.960;2023-03-01T03:43:27;9.30;;;3.75;;
35245;SDS011;21379;50.962;6.960;2023-03-01T03:45:55;5.57;;;3.25;;
35245;SDS011;21379;50.962;6.960;2023-03-01T03:48:23;7.70;;;3.78;;
35245;SDS011;21379;50.962;6.960;2023-03-01T03:50:52;5.55;;;3.47;;
35245;SDS011;21379;50.962;6.960;2023-03-01T03:53:21;7.50;;;3.25;;
35245;SDS011;21379;50.962;6.960;2023-03-01T03:55:49;6.63;;;3.60;;
35245;SDS011;21379;50.962;6.960;2023-03-01T03:58:16;8.35;;;4.03;;
35245;SDS011;21379;50.962;6.960;2023-03-01T04:00:44;4.55;;;2.78;;
35245;SDS011;21379;50.962;6.960;2023-03-01T04:03:13;7.32;;;3.50;;
35245;SDS011;21379;50.962;6.960;2023-03-01T04:05:43;8.77;;;3.05;;
35245;SDS011;21379;50.962;6.960;2023-03-01T04:08:12;6.45;;;3.60;;
35245;SDS011;21379;50.962;6.960;2023-03-01T04:10:40;7.65;;;3.75;;
35245;SDS011;21379;50.962;6.960;2023-03-01T04:13:09;9.68;;;3.72;;
35245;SDS011;21379;50.962;6.960;2023-03-01T04:15:38;7.78;;;4.80;;
35245;SDS011;21379;50.962;6.960;2023-03-01T04:18:06;6.35;;;2.80;;
35245;SDS011;21379;50.962;6.960;2023-03-01T04:20:34;9.48;;;4.85;;
35245;SDS011;21379;50.962;6.960;2023-03-01T04:23:02;9.00;;;3.65;;
35245;SDS011;21379;50.962;6.960;2023-03-01T04:25:38;9.13;;;4.28;;
35245;SDS011;21379;50.962;6.960;2023-03-01T04:28:05;12.50;;;4.00;;
35245;SDS011;21379;50.962;6.960;2023-03-01T04:30:32;8.10;;;3.80;;
35245;SDS011;21379;50.962;6.960;2023-03-01T04:33:01;10.63;;;4.80;;
35245;SDS011;21379;50.962;6.960;2023-03-01T04:35:29;8.70;;;3.72;;
35245;SDS011;21379;50.962;6.960;2023-03-01T04:37:56;9.50;;;4.40;;
35245;SDS011;21379;50.962;6.960;2023-03-01T04:40:23;11.27;;;4.38;;
35245;SDS011;21379;50.962;6.960;2023-03-01T04:42:51;12.27;;;4.40;;
35245;SDS011;21379;50.962;6.960;2023-03-01T04:45:18;8.10;;;3.60;;
35245;SDS011;21379;50.962;6.960;2023-03-01T04:47:45;10.32;;;4.72;;
35245;SDS011;21379;50.962;6.960;2023-03-01T04:50:13;11.88;;;4.30;;
35245;SDS011;21379;50.962;6.960;2023-03-01T04:52:42;7.72;;;3.70;;
35245;SDS011;21379;50.962;6.960;2023-03-01T04:55:09;8.18;;;4.63;;
35245;SDS011;21379;50.962;6.960;2023-03-01T04:57:37;9.43;;;4.85;;
35245;SDS011;21379;50.962;6.960;2023-03-01T05:00:06;8.55;;;4.43;;
35245;SDS011;21379;50.962;6.960;2023-03-01T05:02:45;8.73;;;5.25;;
35245;SDS011;21379;50.962;6.960;2023-03-01T05:05:19;10.85;;;4.13;;
35245;SDS011;21379;50.962;6.960;2023-03-01T05:07:50;14.38;;;5.25;;
35245;SDS011;21379;50.962;6.960;2023-03-01T05:10:20;9.40;;;4.30;;
35245;SDS011;21379;50.962;6.960;2023-03-01T05:12:47;8.73;;;3.53;;
35245;SDS011;21379;50.962;6.960;2023-03-01T05:15:16;10.10;;;3.40;;
35245;SDS011;21379;50.962;6.960;2023-03-01T05:17:42;11.07;;;4.20;;
35245;SDS011;21379;50.962;6.960;2023-03-01T05:20:10;7.85;;;4.30;;
35245;SDS011;21379;50.962;6.960;2023-03-01T05:22:37;13.18;;;4.53;;
35245;SDS011;21379;50.962;6.960;2023-03-01T05:25:04;8.48;;;4.25;;
35245;SDS011;21379;50.962;6.960;2023-03-01T05:27:33;11.02;;;5.03;;
35245;SDS011;21379;50.962;6.960;2023-03-01T05:30:00;9.18;;;3.70;;
35245;SDS011;21379;50.962;6.960;2023-03-01T05:32:39;7.13;;;3.63;;
35245;SDS011;21379;50.962;6.960;2023-03-01T05:35:08;15.85;;;4.75;;
35245;SDS011;21379;50.962;6.960;2023-03-01T05:37:38;9.95;;;4.70;;
35245;SDS011;21379;50.962;6.960;2023-03-01T05:40:05;13.50;;;4.25;;
35245;SDS011;21379;50.962;6.960;2023-03-01T05:42:40;8.75;;;3.67;;
35245;SDS011;21379;50.962;6.960;2023-03-01T05:45:08;9.30;;;4.50;;
35245;SDS011;21379;50.962;6.960;2023-03-01T05:47:35;10.00;;;4.55;;
35245;SDS011;21379;50.962;6.960;2023-03-01T05:50:04;9.98;;;3.92;;
35245;SDS011;21379;50.962;6.960;2023-03-01T05:52:32;12.27;;;5.35;;
35245;SDS011;21379;50.962;6.960;2023-03-01T05:54:59;9.50;;;4.57;;
35245;SDS011;21379;50.962;6.960;2023-03-01T05:57:27;10.68;;;4.68;;
35245;SDS011;21379;50.962;6.960;2023-03-01T05:59:55;7.82;;;4.22;;
35245;SDS011;21379;50.962;6.960;2023-03-01T06:02:21;5.93;;;4.05;;
35245;SDS011;21379;50.962;6.960;2023-03-01T06:04:48;6.38;;;3.17;;
35245;SDS011;21379;50.962;6.960;2023-03-01T06:07:17;20.70;;;5.97;;
35245;SDS011;21379;50.962;6.960;2023-03-01T06:09:43;12.45;;;5.47;;
35245;SDS011;21379;50.962;6.960;2023-03-01T06:12:10;11.65;;;5.22;;
35245;SDS011;21379;50.962;6.960;2023-03-01T06:14:37;9.38;;;5.30;;
35245;SDS011;21379;50.962;6.960;2023-03-01T06:17:04;8.85;;;4.93;;
35245;SDS011;21379;50.962;6.960;2023-03-01T06:19:30;10.35;;;4.32;;
35245;SDS011;21379;50.962;6.960;2023-03-01T06:21:57;11.30;;;4.32;;
35245;SDS011;21379;50.962;6.960;2023-03-01T06:24:25;8.13;;;4.90;;
35245;SDS011;21379;50.962;6.960;2023-03-01T06:26:53;20.80;;;4.70;;
35245;SDS011;21379;50.962;6.960;2023-03-01T06:29:21;9.23;;;4.50;;
35245;SDS011;21379;50.962;6.960;2023-03-01T06:31:48;12.68;;;5.05;;
35245;SDS011;21379;50.962;6.960;2023-03-01T06:34:15;7.57;;;4.03;;
35245;SDS011;21379;50.962;6.960;2023-03-01T06:36:42;9.15;;;4.03;;
35245;SDS011;21379;50.962;6.960;2023-03-01T06:39:09;10.45;;;4.90;;
35245;SDS011;21379;50.962;6.960;2023-03-01T06:41:37;6.40;;;3.67;;
35245;SDS011;21379;50.962;6.960;2023-03-01T06:44:03;10.30;;;5.55;;
35245;SDS011;21379;50.962;6.960;2023-03-01T06:46:30;12.55;;;4.80;;
35245;SDS011;21379;50.962;6.960;2023-03-01T06:48:58;13.05;;;5.75;;
35245;SDS011;21379;50.962;6.960;2023-03-01T06:51:25;15.35;;;5.35;;
35245;SDS011;21379;50.962;6.960;2023-03-01T06:53:52;13.80;;;4.72;;
35245;SDS011;21379;50.962;6.960;2023-03-01T06:56:18;10.43;;;4.82;;
35245;SDS011;21379;50.962;6.960;2023-03-01T06:58:47;9.63;;;4.40;;
35245;SDS011;21379;50.962;6.960;2023-03-01T07:01:13;11.10;;;4.88;;
35245;SDS011;21379;50.962;6.960;2023-03-01T07:03:40;13.68;;;5.78;;
35245;SDS011;21379;50.962;6.960;2023-03-01T07:06:09;11.48;;;4.25;;
35245;SDS011;21379;50.962;6.960;2023-03-01T07:08:36;12.75;;;6.65;;
35245;SDS011;21379;50.962;6.960;2023-03-01T07:11:02;13.05;;;5.07;;
35245;SDS011;21379;50.962;6.960;2023-03-01T07:13:30;12.20;;;5.18;;
35245;SDS011;21379;50.962;6.960;2023-03-01T07:15:59;13.20;;;4.93;;
35245;SDS011;21379;50.962;6.960;2023-03-01T07:18:26;8.75;;;4.45;;
35245;SDS011;21379;50.962;6.960;2023-03-01T07:20:53;10.65;;;4.75;;
35245;SDS011;21379;50.962;6.960;2023-03-01T07:23:19;13.23;;;5.63;;
35245;SDS011;21379;50.962;6.960;2023-03-01T07:25:51;17.27;;;6.60;;
35245;SDS011;21379;50.962;6.960;2023-03-01T07:28:18;12.00;;;6.03;;
35245;SDS011;21379;50.962;6.960;2023-03-01T07:30:45;9.32;;;5.25;;
35245;SDS011;21379;50.962;6.960;2023-03-01T07:33:14;16.80;;;6.55;;
35245;SDS011;21379;50.962;6.960;2023-03-01T07:35:40;11.63;;;5.88;;
35245;SDS011;21379;50.962;6.960;2023-03-01T07:38:07;12.70;;;5.53;;
35245;SDS011;21379;50.962;6.960;2023-03-01T07:40:34;13.23;;;6.22;;
35245;SDS011;21379;50.962;6.960;2023-03-01T07:43:01;16.92;;;5.38;;
35245;SDS011;21379;50.962;6.960;2023-03-01T07:45:28;9.70;;;5.28;;
35245;SDS011;21379;50.962;6.960;2023-03-01T07:47:55;15.70;;;6.75;;
35245;SDS011;21379;50.962;6.960;2023-03-01T07:50:23;10.43;;;5.07;;
35245;SDS011;21379;50.962;6.960;2023-03-01T07:52:50;12.10;;;4.53;;
35245;SDS011;21379;50.962;6.960;2023-03-01T07:55:17;14.52;;;6.18;;
35245;SDS011;21379;50.962;6.960;2023-03-01T07:57:45;11.88;;;7.00;;
35245;SDS011;21379;50.962;6.960;2023-03-01T08:00:12;18.48;;;7.35;;
35245;SDS011;21379;50.962;6.960;2023-03-01T08:02:39;13.38;;;6.53;;
35245;SDS011;21379;50.962;6.960;2023-03-01T08:05:07;15.20;;;6.20;;
35245;SDS011;21379;50.962;6.960;2023-03-01T08:07:36;18.10;;;6.90;;
35245;SDS011;21379;50.962;6.960;2023-03-01T08:10:03;10.57;;;5.00;;
35245;SDS011;21379;50.962;6.960;2023-03-01T08:12:30;16.88;;;6.38;;
35245;SDS011;21379;50.962;6.960;2023-03-01T08:14:57;14.70;;;6.68;;
35245;SDS011;21379;50.962;6.960;2023-03-01T08:17:24;18.55;;;5.65;;
35245;SDS011;21379;50.962;6.960;2023-03-01T08:19:51;14.10;;;7.15;;
35245;SDS011;21379;50.962;6.960;2023-03-01T08:22:17;16.38;;;6.97;;
35245;SDS011;21379;50.962;6.960;2023-03-01T08:24:46;11.10;;;5.75;;
35245;SDS011;21379;50.962;6.960;2023-03-01T08:27:14;12.25;;;6.10;;
35245;SDS011;21379;50.962;6.960;2023-03-01T08:29:41;13.05;;;6.00;;
35245;SDS011;21379;50.962;6.960;2023-03-01T08:32:08;16.95;;;6.47;;
35245;SDS011;21379;50.962;6.960;2023-03-01T08:34:35;19.70;;;6.05;;
35245;SDS011;21379;50.962;6.960;2023-03-01T08:37:02;15.85;;;6.18;;
35245;SDS011;21379;50.962;6.960;2023-03-01T08:39:28;15.77;;;6.43;;
35245;SDS011;21379;50.962;6.960;2023-03-01T08:41:57;13.20;;;6.32;;
35245;SDS011;21379;50.962;6.960;2023-03-01T08:44:23;17.48;;;6.65;;
35245;SDS011;21379;50.962;6.960;2023-03-01T08:46:50;8.80;;;5.63;;
35245;SDS011;21379;50.962;6.960;2023-03-01T08:49:18;9.98;;;5.25;;
35245;SDS011;21379;50.962;6.960;2023-03-01T08:51:46;13.35;;;5.65;;
35245;SDS011;21379;50.962;6.960;2023-03-01T08:54:14;16.08;;;6.35;;
35245;SDS011;21379;50.962;6.960;2023-03-01T08:56:43;14.10;;;6.68;;
35245;SDS011;21379;50.962;6.960;2023-03-01T08:59:11;14.50;;;5.35;;
35245;SDS011;21379;50.962;6.960;2023-03-01T09:01:38;16.42;;;6.35;;
35245;SDS011;21379;50.962;6.960;2023-03-01T09:04:08;10.75;;;6.25;;
35245;SDS011;21379;50.962;6.960;2023-03-01T09:06:35;12.43;;;5.55;;
35245;SDS011;21379;50.962;6.960;2023-03-01T09:09:03;11.30;;;5.15;;
35245;SDS011;21379;50.962;6.960;2023-03-01T09:11:31;9.18;;;5.15;;
35245;SDS011;21379;50.962;6.960;2023-03-01T09:13:58;9.05;;;4.50;;
35245;SDS011;21379;50.962;6.960;2023-03-01T09:16:26;8.75;;;5.30;;
35245;SDS011;21379;50.962;6.960;2023-03-01T09:18:54;9.57;;;4.68;;
35245;SDS011;21379;50.962;6.960;2023-03-01T09:21:22;8.57;;;5.13;;
35245;SDS011;21379;50.962;6.960;2023-03-01T09:23:50;9.25;;;4.55;;
35245;SDS011;21379;50.962;6.960;2023-03-01T09:26:17;9.98;;;5.97;;
35245;SDS011;21379;50.962;6.960;2023-03-01T09:28:46;8.68;;;4.53;;
35245;SDS011;21379;50.962;6.960;2023-03-01T09:31:14;9.55;;;5.32;;
35245;SDS011;21379;50.962;6.960;2023-03-01T09:33:45;11.73;;;5.10;;
35245;SDS011;21379;50.962;6.960;2023-03-01T09:36:13;10.25;;;5.18;;
35245;SDS011;21379;50.962;6.960;2023-03-01T09:38:41;7.38;;;4.72;;
35245;SDS011;21379;50.962;6.960;2023-03-01T09:41:15;11.70;;;5.18;;
35245;SDS011;21379;50.962;6.960;2023-03-01T09:43:59;10.55;;;4.72;;
35245;SDS011;21379;50.962;6.960;2023-03-01T09:46:29;15.80;;;5.13;;
35245;SDS011;21379;50.962;6.960;2023-03-01T09:49:03;9.00;;;4.90;;
35245;SDS011;21379;50.962;6.960;2023-03-01T09:51:35;10.38;;;5.00;;
35245;SDS011;21379;50.962;6.960;2023-03-01T09:54:03;13.05;;;5.20;;
35245;SDS011;21379;50.962;6.960;2023-03-01T09:56:33;9.00;;;4.65;;
35245;SDS011;21379;50.962;6.960;2023-03-01T09:59:06;10.98;;;4.93;;
35245;SDS011;21379;50.962;6.960;2023-03-01T10:01:46;9.65;;;4.50;;
35245;SDS011;21379;50.962;6.960;2023-03-01T10:04:26;9.70;;;5.13;;
35245;SDS011;21379;50.962;6.960;2023-03-01T10:07:02;8.93;;;4.45;;
35245;SDS011;21379;50.962;6.960;2023-03-01T10:09:39;12.38;;;5.22;;
35245;SDS011;21379;50.962;6.960;2023-03-01T10:12:08;10.05;;;4.65;;
35245;SDS011;21379;50.962;6.960;2023-03-01T10:14:39;8.50;;;5.40;;
35245;SDS011;21379;50.962;6.960;2023-03-01T10:17:12;8.85;;;4.72;;
35245;SDS011;21379;50.962;6.960;2023-03-01T10:19:49;11.38;;;5.50;;
35245;SDS011;21379;50.962;6.960;2023-03-01T10:22:18;8.02;;;4.70;;
35245;SDS011;21379;50.962;6.960;2023-03-01T10:24:47;10.32;;;5.32;;
35245;SDS011;21379;50.962;6.960;2023-03-01T10:27:16;10.20;;;4.80;;
35245;SDS011;21379;50.962;6.960;2023-03-01T10:29:49;9.95;;;5.30;;
35245;SDS011;21379;50.962;6.960;2023-03-01T10:32:21;9.73;;;4.97;;
35245;SDS011;21379;50.962;6.960;2023-03-01T10:34:49;12.20;;;5.32;;
35245;SDS011;21379;50.962;6.960;2023-03-01T10:37:17;9.63;;;4.75;;
35245;SDS011;21379;50.962;6.960;2023-03-01T10:39:56;16.33;;;7.25;;
35245;SDS011;21379;50.962;6.960;2023-03-01T10:42:26;10.90;;;5.70;;
35245;SDS011;21379;50.962;6.960;2023-03-01T10:44:55;16.05;;;5.25;;
35245;SDS011;21379;50.962;6.960;2023-03-01T10:47:22;9.75;;;4.85;;
35245;SDS011;21379;50.962;6.960;2023-03-01T10:49:56;10.45;;;4.60;;
35245;SDS011;21379;50.962;6.960;2023-03-01T10:52:26;9.02;;;5.13;;
35245;SDS011;21379;50.962;6.960;2023-03-01T10:54:59;8.65;;;4.65;;
35245;SDS011;21379;50.962;6.960;2023-03-01T10:57:29;9.40;;;5.00;;
35245;SDS011;21379;50.962;6.960;2023-03-01T11:00:09;9.25;;;4.80;;
35245;SDS011;21379;50.962;6.960;2023-03-01T11:02:45;8.00;;;4.70;;
35245;SDS011;21379;50.962;6.960;2023-03-01T11:05:18;9.57;;;5.18;;
35245;SDS011;21379;50.962;6.960;2023-03-01T11:10:17;13.77;;;4.18;;
35245;SDS011;21379;50.962;6.960;2023-03-01T11:12:49;10.80;;;4.88;;
35245;SDS011;21379;50.962;6.960;2023-03-01T11:15:24;15.73;;;5.55;;
35245;SDS011;21379;50.962;6.960;2023-03-01T11:17:53;11.90;;;5.25;;
35245;SDS011;21379;50.962;6.960;2023-03-01T11:20:27;11.30;;;4.20;;
35245;SDS011;21379;50.962;6.960;2023-03-01T11:22:57;10.48;;;4.57;;
35245;SDS011;21379;50.962;6.960;2023-03-01T11:25:28;11.35;;;5.28;;
35245;SDS011;21379;50.962;6.960;2023-03-01T11:27:59;12.15;;;4.65;;
35245;SDS011;21379;50.962;6.960;2023-03-01T11:30:28;10.35;;;5.10;;
35245;SDS011;21379;50.962;6.960;2023-03-01T11:33:02;9.23;;;5.40;;
35245;SDS011;21379;50.962;6.960;2023-03-01T11:35:41;9.43;;;4.82;;
35245;SDS011;21379;50.962;6.960;2023-03-01T11:38:15;10.50;;;5.43;;
35245;SDS011;21379;50.962;6.960;2023-03-01T11:40:47;9.82;;;5.18;;
35245;SDS011;21379;50.962;6.960;2023-03-01T11:43:20;10.77;;;4.57;;
35245;SDS011;21379;50.962;6.960;2023-03-01T11:45:57;10.80;;;4.95;;
35245;SDS011;21379;50.962;6.960;2023-03-01T11:48:43;7.50;;;5.22;;
35245;SDS011;21379;50.962;6.960;2023-03-01T11:51:22;8.68;;;4.45;;
35245;SDS011;21379;50.962;6.960;2023-03-01T11:54:01;11.13;;;5.07;;
35245;SDS011;21379;50.962;6.960;2023-03-01T11:56:40;10.70;;;4.93;;
35245;SDS011;21379;50.962;6.960;2023-03-01T11:59:25;11.20;;;5.47;;
35245;SDS011;21379;50.962;6.960;2023-03-01T12:05:33;9.05;;;4.43;;
35245;SDS011;21379;50.962;6.960;2023-03-01T12:08:22;8.95;;;4.22;;
35245;SDS011;21379;50.962;6.960;2023-03-01T12:10:56;9.90;;;5.45;;
35245;SDS011;21379;50.962;6.960;2023-03-01T12:13:41;13.15;;;4.75;;
35245;SDS011;21379;50.962;6.960;2023-03-01T12:16:24;8.30;;;4.63;;
35245;SDS011;21379;50.962;6.960;2023-03-01T12:19:07;11.25;;;5.40;;
35245;SDS011;21379;50.962;6.960;2023-03-01T12:21:51;12.15;;;5.07;;
35245;SDS011;21379;50.962;6.960;2023-03-01T12:27:35;12.10;;;4.55;;
35245;SDS011;21379;50.962;6.960;2023-03-01T12:30:21;11.50;;;4.80;;
35245;SDS011;21379;50.962;6.960;2023-03-01T12:32:59;8.50;;;4.70;;
35245;SDS011;21379;50.962;6.960;2023-03-01T12:38:37;8.10;;;4.22;;
35245;SDS011;21379;50.962;6.960;2023-03-01T12:41:15;10.20;;;4.13;;
35245;SDS011;21379;50.962;6.960;2023-03-01T12:43:58;10.15;;;4.85;;
35245;SDS011;21379;50.962;6.960;2023-03-01T12:46:36;6.18;;;4.20;;
35245;SDS011;21379;50.962;6.960;2023-03-01T12:49:19;8.88;;;4.53;;
35245;SDS011;21379;50.962;6.960;2023-03-01T12:51:53;7.95;;;3.90;;
35245;SDS011;21379;50.962;6.960;2023-03-01T12:54:25;9.35;;;4.40;;
35245;SDS011;21379;50.962;6.960;2023-03-01T12:56:56;13.68;;;4.72;;
35245;SDS011;21379;50.962;6.960;2023-03-01T12:59:27;11.57;;;5.38;;
35245;SDS011;21379;50.962;6.960;2023-03-01T13:02:02;13.20;;;5.13;;
35245;SDS011;21379;50.962;6.960;2023-03-01T13:04:40;10.20;;;4.68;;
35245;SDS011;21379;50.962;6.960;2023-03-01T13:07:25;7.22;;;4.38;;
35245;SDS011;21379;50.962;6.960;2023-03-01T13:10:00;9.48;;;4.35;;
35245;SDS011;21379;50.962;6.960;2023-03-01T13:12:52;7.60;;;4.28;;
35245;SDS011;21379;50.962;6.960;2023-03-01T13:15:28;10.23;;;4.80;;
35245;SDS011;21379;50.962;6.960;2023-03-01T13:18:03;13.57;;;5.78;;
35245;SDS011;21379;50.962;6.960;2023-03-01T13:20:32;6.78;;;3.97;;
35245;SDS011;21379;50.962;6.960;2023-03-01T13:23:12;7.60;;;4.45;;
35245;SDS011;21379;50.962;6.960;2023-03-01T13:26:00;9.02;;;4.80;;
35245;SDS011;21379;50.962;6.960;2023-03-01T13:28:38;12.82;;;3.70;;
35245;SDS011;21379;50.962;6.960;2023-03-01T13:43:26;9.65;;;4.18;;
35245;SDS011;21379;50.962;6.960;2023-03-01T13:45:56;6.15;;;3.60;;
35245;SDS011;21379;50.962;6.960;2023-03-01T13:48:25;12.50;;;4.78;;
35245;SDS011;21379;50.962;6.960;2023-03-01T13:50:54;8.32;;;3.83;;
35245;SDS011;21379;50.962;6.960;2023-03-01T13:53:26;11.88;;;4.40;;
35245;SDS011;21379;50.962;6.960;2023-03-01T13:55:57;6.80;;;3.95;;
35245;SDS011;21379;50.962;6.960;2023-03-01T13:58:27;6.03;;;3.55;;
35245;SDS011;21379;50.962;6.960;2023-03-01T14:00:59;7.65;;;3.85;;
35245;SDS011;21379;50.962;6.960;2023-03-01T14:03:27;8.23;;;4.18;;
35245;SDS011;21379;50.962;6.960;2023-03-01T14:06:03;9.73;;;5.10;;
35245;SDS011;21379;50.962;6.960;2023-03-01T14:08:35;9.10;;;4.05;;
35245;SDS011;21379;50.962;6.960;2023-03-01T14:11:08;11.07;;;4.03;;
35245;SDS011;21379;50.962;6.960;2023-03-01T14:14:16;10.30;;;4.07;;
35245;SDS011;21379;50.962;6.960;2023-03-01T14:17:05;6.03;;;3.33;;
35245;SDS011;21379;50.962;6.960;2023-03-01T14:19:46;8.45;;;4.20;;
35245;SDS011;21379;50.962;6.960;2023-03-01T14:22:16;8.95;;;4.03;;
35245;SDS011;21379;50.962;6.960;2023-03-01T14:24:48;12.98;;;3.80;;
35245;SDS011;21379;50.962;6.960;2023-03-01T14:27:16;8.82;;;4.50;;
35245;SDS011;21379;50.962;6.960;2023-03-01T14:29:44;7.03;;;3.53;;
35245;SDS011;21379;50.962;6.960;2023-03-01T14:32:24;8.82;;;4.47;;
35245;SDS011;21379;50.962;6.960;2023-03-01T14:34:52;8.18;;;3.90;;
35245;SDS011;21379;50.962;6.960;2023-03-01T14:37:20;6.68;;;3.75;;
35245;SDS011;21379;50.962;6.960;2023-03-01T14:39:49;7.35;;;3.95;;
35245;SDS011;21379;50.962;6.960;2023-03-01T14:42:16;8.60;;;3.92;;
35245;SDS011;21379;50.962;6.960;2023-03-01T14:44:45;8.10;;;4.03;;
35245;SDS011;21379;50.962;6.960;2023-03-01T14:47:14;7.30;;;3.75;;
35245;SDS011;21379;50.962;6.960;2023-03-01T14:49:54;8.82;;;3.95;;
35245;SDS011;21379;50.962;6.960;2023-03-01T14:52:25;15.18;;;4.90;;
35245;SDS011;21379;50.962;6.960;2023-03-01T14:57:26;10.25;;;3.13;;
35245;SDS011;21379;50.962;6.960;2023-03-01T14:59:53;9.38;;;4.60;;
35245;SDS011;21379;50.962;6.960;2023-03-01T15:02:22;6.18;;;3.80;;
35245;SDS011;21379;50.962;6.960;2023-03-01T15:04:51;9.35;;;3.50;;
35245;SDS011;21379;50.962;6.960;2023-03-01T15:07:22;8.98;;;4.00;;
35245;SDS011;21379;50.962;6.960;2023-03-01T15:09:52;7.15;;;3.88;;
35245;SDS011;21379;50.962;6.960;2023-03-01T15:12:35;10.25;;;3.85;;
35245;SDS011;21379;50.962;6.960;2023-03-01T15:15:29;10.52;;;4.43;;
35245;SDS011;21379;50.962;6.960;2023-03-01T15:18:14;9.45;;;4.28;;
35245;SDS011;21379;50.962;6.960;2023-03-01T15:20:45;6.25;;;3.60;;
35245;SDS011;21379;50.962;6.960;2023-03-01T15:23:18;8.18;;;3.90;;
35245;SDS011;21379;50.962;6.960;2023-03-01T15:25:47;4.95;;;2.35;;
35245;SDS011;21379;50.962;6.960;2023-03-01T15:28:21;11.95;;;6.90;;
35245;SDS011;21379;50.962;6.960;2023-03-01T15:30:52;7.68;;;4.00;;
35245;SDS011;21379;50.962;6.960;2023-03-01T15:33:29;7.75;;;3.80;;